Time;durP1;ratioP1;P1;durP2;ratioP2;P2;SDS_P1;SDS_P2;PMS_P1;PMS_P2;Temp;Humidity;BMP_temperature;BMP_pressure;BME280_temperature;BME280_humidity;BME280_pressure;Samples;Min_cycle;Max_cycle;Signal;HPM_P1;HPM_P2
2022/03/01 00:00:44;;;;;;;23.95;11.98;;;;;;;;;;8331495;28;20535;-85
2022/03/01 00:04:48;;;;;;;25.15;11.38;;;;;;;;;;8331252;28;20049;-82
2022/03/01 00:08:53;;;;;;;21.95;10.70;;;;;;;;;;8331589;28;20444;-82
2022/03/01 00:12:55;;;;;;;20.52;9.10;;;;;;;;;;8331970;28;20046;-83
2022/03/01 00:16:58;;;;;;;18.30;9.10;;;;;;;;;;8331199;28;20049;-83
2022/03/01 00:21:02;;;;;;;23.73;10.48;;;;;;;;;;8331254;28;20436;-83
2022/03/01 00:25:06;;;;;;;23.85;10.25;;;;;;;;;;8356419;28;20041;-83
2022/03/01 00:29:08;;;;;;;21.73;11.38;;;;;;;;;;8341796;28;20056;-83
2022/03/01 00:33:11;;;;;;;21.65;10.10;;;;;;;;;;8337820;28;20045;-82
2022/03/01 00:37:15;;;;;;;18.52;8.93;;;;;;;;;;8338167;28;20057;-83
2022/03/01 00:41:17;;;;;;;16.17;9.55;;;;;;;;;;8337427;28;20045;-82
2022/03/01 00:45:20;;;;;;;17.35;8.82;;;;;;;;;;8359392;28;20135;-83
2022/03/01 00:49:22;;;;;;;18.52;10.18;;;;;;;;;;8368914;28;20049;-82
2022/03/01 00:53:26;;;;;;;17.88;8.00;;;;;;;;;;8369048;28;20045;-83
2022/03/01 00:57:29;;;;;;;20.08;9.18;;;;;;;;;;8368463;28;20052;-84
2022/03/01 01:01:31;;;;;;;16.45;6.47;;;;;;;;;;8368232;28;20045;-83
2022/03/01 01:05:34;;;;;;;19.65;8.55;;;;;;;;;;8368539;28;20455;-83
2022/03/01 01:09:38;;;;;;;19.73;8.80;;;;;;;;;;8367947;28;20049;-82
2022/03/01 01:13:41;;;;;;;15.25;7.18;;;;;;;;;;8367941;28;20067;-82
2022/03/01 01:17:44;;;;;;;17.42;9.02;;;;;;;;;;8367941;28;20489;-82
2022/03/01 01:26:07;;;;;;;13.80;7.43;;;;;;;;;;8363972;28;20076;-83
2022/03/01 01:30:13;;;;;;;16.73;6.75;;;;;;;;;;8368059;28;20040;-83
2022/03/01 01:34:15;;;;;;;17.40;7.53;;;;;;;;;;8373756;28;20051;-83
2022/03/01 01:38:18;;;;;;;16.70;8.43;;;;;;;;;;8355439;28;20090;-83
2022/03/01 01:42:22;;;;;;;22.70;10.60;;;;;;;;;;8360849;28;20067;-83
2022/03/01 01:46:24;;;;;;;19.83;9.25;;;;;;;;;;8362794;28;20052;-83
2022/03/01 01:50:28;;;;;;;24.00;9.07;;;;;;;;;;8367227;28;20044;-85
2022/03/01 01:54:31;;;;;;;14.50;7.70;;;;;;;;;;8387456;28;20427;-83
2022/03/01 01:58:35;;;;;;;21.70;7.53;;;;;;;;;;8369318;28;20040;-83
2022/03/01 02:02:38;;;;;;;17.45;7.63;;;;;;;;;;8381523;28;20041;-84
2022/03/01 02:06:50;;;;;;;23.00;9.27;;;;;;;;;;8374526;28;20056;-82
2022/03/01 02:10:53;;;;;;;16.70;8.13;;;;;;;;;;8376809;28;20124;-83
2022/03/01 02:14:57;;;;;;;17.33;8.02;;;;;;;;;;8379172;28;20041;-82
2022/03/01 02:19:00;;;;;;;12.85;6.85;;;;;;;;;;8375596;28;20081;-85
2022/03/01 02:23:04;;;;;;;15.48;7.32;;;;;;;;;;8375067;28;20063;-83
2022/03/01 02:27:07;;;;;;;15.18;7.28;;;;;;;;;;8359628;28;20056;-83
2022/03/01 02:31:10;;;;;;;18.23;7.78;;;;;;;;;;8365238;28;20048;-83
2022/03/01 02:35:12;;;;;;;24.88;10.68;;;;;;;;;;8369438;28;20077;-83
2022/03/01 02:39:17;;;;;;;18.33;8.80;;;;;;;;;;8365246;28;20045;-83
2022/03/01 02:43:20;;;;;;;21.15;8.23;;;;;;;;;;8365038;28;20045;-84
2022/03/01 02:47:22;;;;;;;23.63;9.25;;;;;;;;;;8365237;28;20389;-83
2022/03/01 02:51:25;;;;;;;14.07;6.75;;;;;;;;;;8364263;28;20045;-83
2022/03/01 02:55:29;;;;;;;17.55;8.65;;;;;;;;;;8364952;28;20049;-83
2022/03/01 02:59:32;;;;;;;18.13;8.30;;;;;;;;;;8364469;28;20485;-83
2022/03/01 03:03:35;;;;;;;20.60;8.20;;;;;;;;;;8365221;28;20060;-84
2022/03/01 03:07:37;;;;;;;17.65;8.38;;;;;;;;;;8358652;28;20063;-84
2022/03/01 03:11:41;;;;;;;17.70;8.38;;;;;;;;;;8364471;28;20052;-83
2022/03/01 03:15:44;;;;;;;19.13;7.75;;;;;;;;;;8363986;28;20041;-83
2022/03/01 03:19:46;;;;;;;16.08;7.90;;;;;;;;;;8363710;28;20049;-84
2022/03/01 03:23:49;;;;;;;22.52;8.65;;;;;;;;;;8363800;28;20049;-83
2022/03/01 03:27:53;;;;;;;15.80;8.20;;;;;;;;;;8363381;28;20099;-84
2022/03/01 03:31:57;;;;;;;28.08;8.52;;;;;;;;;;8363506;28;20048;-83
2022/03/01 03:35:59;;;;;;;29.40;10.05;;;;;;;;;;8348040;28;20416;-83
2022/03/01 03:40:03;;;;;;;29.42;12.45;;;;;;;;;;8331894;28;20057;-83
2022/03/01 03:44:07;;;;;;;20.45;11.05;;;;;;;;;;8332064;28;20046;-83
2022/03/01 03:48:09;;;;;;;30.80;12.00;;;;;;;;;;8331475;28;20088;-84
2022/03/01 03:52:12;;;;;;;32.47;10.45;;;;;;;;;;8331623;28;20049;-84
2022/03/01 03:56:15;;;;;;;18.63;8.30;;;;;;;;;;8331965;28;20045;-84
2022/03/01 04:00:19;;;;;;;16.00;8.20;;;;;;;;;;8331727;28;20061;-84
2022/03/01 04:04:22;;;;;;;25.23;7.55;;;;;;;;;;8331551;28;20041;-85
2022/03/01 04:08:24;;;;;;;19.33;9.77;;;;;;;;;;8340860;28;20412;-85
2022/03/01 04:12:27;;;;;;;17.58;10.77;;;;;;;;;;8347810;28;20049;-86
2022/03/01 04:16:31;;;;;;;24.10;9.20;;;;;;;;;;8362671;28;20049;-83
2022/03/01 04:20:34;;;;;;;12.82;7.38;;;;;;;;;;8362793;28;20059;-83
2022/03/01 04:24:36;;;;;;;17.33;7.93;;;;;;;;;;8362583;28;20405;-85
2022/03/01 04:28:39;;;;;;;54.30;20.30;;;;;;;;;;8362660;28;20049;-85
2022/03/01 04:32:43;;;;;;;23.92;11.23;;;;;;;;;;8362832;28;20472;-84
2022/03/01 04:36:45;;;;;;;21.85;10.00;;;;;;;;;;8362853;28;20408;-85
2022/03/01 04:40:48;;;;;;;16.77;7.18;;;;;;;;;;8363007;28;20060;-84
2022/03/01 04:44:51;;;;;;;18.33;9.32;;;;;;;;;;8362151;28;20095;-85
2022/03/01 04:48:56;;;;;;;19.52;8.27;;;;;;;;;;8362005;28;20077;-84
2022/03/01 04:52:58;;;;;;;24.42;8.38;;;;;;;;;;8362643;28;20052;-84
2022/03/01 04:57:01;;;;;;;20.65;8.65;;;;;;;;;;8362381;28;20041;-84
2022/03/01 05:01:03;;;;;;;18.20;9.15;;;;;;;;;;8361928;28;20087;-84
2022/03/01 05:05:10;;;;;;;22.80;8.52;;;;;;;;;;8361924;28;20045;-84
2022/03/01 05:09:13;;;;;;;16.15;8.25;;;;;;;;;;8356550;28;20051;-85
2022/03/01 05:13:16;;;;;;;15.05;7.10;;;;;;;;;;8357261;28;20541;-84
2022/03/01 05:17:18;;;;;;;13.40;9.00;;;;;;;;;;8368579;28;20574;-85
2022/03/01 05:21:22;;;;;;;13.18;7.53;;;;;;;;;;8350975;28;20041;-85
2022/03/01 05:25:26;;;;;;;18.65;7.55;;;;;;;;;;8383845;28;20041;-85
2022/03/01 05:29:29;;;;;;;13.43;7.75;;;;;;;;;;8380912;28;20095;-83
2022/03/01 05:33:32;;;;;;;19.45;8.45;;;;;;;;;;8379236;28;20053;-83
2022/03/01 05:37:38;;;;;;;12.30;6.72;;;;;;;;;;8389475;28;20135;-84
2022/03/01 05:41:40;;;;;;;22.65;9.05;;;;;;;;;;8379074;28;20037;-83
2022/03/01 05:45:43;;;;;;;20.85;7.93;;;;;;;;;;8344688;28;20399;-82
2022/03/01 05:49:46;;;;;;;21.90;7.95;;;;;;;;;;8367550;28;20053;-82
2022/03/01 05:53:53;;;;;;;27.73;8.60;;;;;;;;;;8358066;28;20049;-82
2022/03/01 05:57:55;;;;;;;32.75;10.25;;;;;;;;;;8360131;28;20096;-82
2022/03/01 06:01:58;;;;;;;22.75;9.30;;;;;;;;;;8364736;28;20049;-83
2022/03/01 06:06:01;;;;;;;19.80;10.43;;;;;;;;;;8366910;28;20503;-82
2022/03/01 06:10:07;;;;;;;34.95;13.07;;;;;;;;;;8365711;28;20041;-82
2022/03/01 06:14:09;;;;;;;25.00;10.07;;;;;;;;;;8366073;28;20476;-83
2022/03/01 06:18:12;;;;;;;26.88;8.63;;;;;;;;;;8366866;28;20132;-82
2022/03/01 06:22:16;;;;;;;26.58;9.93;;;;;;;;;;8365979;28;20045;-82
2022/03/01 06:26:21;;;;;;;63.08;21.70;;;;;;;;;;8362783;28;20041;-83
2022/03/01 06:30:24;;;;;;;65.82;27.02;;;;;;;;;;8335739;28;20408;-82
2022/03/01 06:34:28;;;;;;;55.00;19.08;;;;;;;;;;8365716;28;20136;-82
2022/03/01 06:38:30;;;;;;;104.85;39.20;;;;;;;;;;8365354;28;20068;-85
2022/03/01 06:42:35;;;;;;;135.05;42.15;;;;;;;;;;8365507;28;20469;-84
2022/03/01 06:46:38;;;;;;;144.57;44.35;;;;;;;;;;8369709;28;20692;-83
2022/03/01 06:50:41;;;;;;;97.55;34.00;;;;;;;;;;8363636;28;20049;-82
2022/03/01 06:54:43;;;;;;;88.47;33.85;;;;;;;;;;8364081;28;20068;-83
2022/03/01 06:58:48;;;;;;;95.80;34.00;;;;;;;;;;8364495;28;20098;-83
2022/03/01 07:02:51;;;;;;;71.45;32.42;;;;;;;;;;8371157;28;20490;-83
2022/03/01 07:06:54;;;;;;;117.50;47.28;;;;;;;;;;8347601;28;20053;-82
2022/03/01 07:10:56;;;;;;;108.00;49.05;;;;;;;;;;8363558;28;20049;-82
2022/03/01 07:15:01;;;;;;;65.45;34.42;;;;;;;;;;8362986;28;20135;-82
2022/03/01 07:19:03;;;;;;;76.40;40.10;;;;;;;;;;8358979;28;20132;-82
2022/03/01 07:23:07;;;;;;;65.35;37.47;;;;;;;;;;8365103;28;20405;-82
2022/03/01 07:27:10;;;;;;;66.82;34.80;;;;;;;;;;8331827;28;20103;-82
2022/03/01 07:31:16;;;;;;;53.47;33.38;;;;;;;;;;8341810;28;20049;-82
2022/03/01 07:35:19;;;;;;;60.33;32.17;;;;;;;;;;8363711;28;20052;-82
2022/03/01 07:39:22;;;;;;;65.43;34.95;;;;;;;;;;8362255;28;20045;-82
2022/03/01 07:43:24;;;;;;;94.18;45.45;;;;;;;;;;8363661;28;20045;-82
2022/03/01 07:47:28;;;;;;;72.05;39.17;;;;;;;;;;8370372;28;20049;-80
2022/03/01 07:51:31;;;;;;;57.72;32.13;;;;;;;;;;8362744;28;20047;-80
2022/03/01 07:55:35;;;;;;;49.78;27.63;;;;;;;;;;8363597;28;20045;-80
2022/03/01 07:59:43;;;;;;;37.78;21.15;;;;;;;;;;8362419;28;20045;-80
2022/03/01 08:03:53;;;;;;;28.90;15.55;;;;;;;;;;8363207;28;20044;-80
2022/03/01 08:07:59;;;;;;;28.67;16.90;;;;;;;;;;8361402;28;20048;-79
2022/03/01 08:12:02;;;;;;;23.70;12.88;;;;;;;;;;8362434;28;20068;-79
2022/03/01 08:16:06;;;;;;;20.85;12.25;;;;;;;;;;8356297;28;20385;-80
2022/03/01 08:20:12;;;;;;;24.30;13.55;;;;;;;;;;8362736;28;20065;-79
2022/03/01 08:24:15;;;;;;;25.00;12.57;;;;;;;;;;8337150;28;20046;-80
2022/03/01 08:28:18;;;;;;;22.27;12.70;;;;;;;;;;8329796;28;20052;-79
2022/03/01 08:32:21;;;;;;;21.30;11.75;;;;;;;;;;8358494;28;20045;-79
2022/03/01 08:36:26;;;;;;;19.30;10.88;;;;;;;;;;8359273;28;20119;-79
2022/03/01 08:40:29;;;;;;;16.15;8.85;;;;;;;;;;8361217;28;20048;-80
2022/03/01 08:44:31;;;;;;;20.15;10.50;;;;;;;;;;8361416;28;20091;-80
2022/03/01 08:48:34;;;;;;;15.73;9.02;;;;;;;;;;8362331;28;20095;-79
2022/03/01 08:52:39;;;;;;;21.73;11.30;;;;;;;;;;8368564;28;20159;-79
2022/03/01 08:56:41;;;;;;;11.38;6.15;;;;;;;;;;8368535;28;20049;-80
2022/03/01 09:00:45;;;;;;;10.25;6.18;;;;;;;;;;8368201;28;20045;-80
2022/03/01 09:04:48;;;;;;;17.00;8.40;;;;;;;;;;8362770;28;20052;-80
2022/03/01 09:08:52;;;;;;;11.98;6.15;;;;;;;;;;8342861;28;20053;-79
2022/03/01 09:12:56;;;;;;;10.57;5.55;;;;;;;;;;8336484;28;20065;-81
2022/03/01 09:16:59;;;;;;;12.55;7.07;;;;;;;;;;8336314;28;20137;-80
2022/03/01 09:21:01;;;;;;;11.55;6.50;;;;;;;;;;8271643;28;20062;-80
2022/03/01 09:25:06;;;;;;;11.90;7.05;;;;;;;;;;8271584;28;20494;-80
2022/03/01 09:29:09;;;;;;;11.10;5.53;;;;;;;;;;8270751;28;20074;-79
2022/03/01 09:33:12;;;;;;;9.43;5.18;;;;;;;;;;8271202;28;20074;-79
2022/03/01 09:37:15;;;;;;;9.18;5.20;;;;;;;;;;8270329;28;20046;-79
2022/03/01 09:41:20;;;;;;;11.75;6.57;;;;;;;;;;8284773;28;20145;-78
2022/03/01 09:45:23;;;;;;;8.05;4.80;;;;;;;;;;8297301;28;20042;-78
2022/03/01 09:49:26;;;;;;;10.32;5.07;;;;;;;;;;8300278;28;20050;-78
2022/03/01 09:53:29;;;;;;;8.82;5.20;;;;;;;;;;8298656;28;20046;-78
2022/03/01 09:57:34;;;;;;;9.15;4.95;;;;;;;;;;8298935;28;20112;-80
2022/03/01 10:01:36;;;;;;;10.70;4.95;;;;;;;;;;8297242;28;20112;-79
2022/03/01 10:05:43;;;;;;;8.30;3.88;;;;;;;;;;8299116;28;20050;-79
2022/03/01 10:09:48;;;;;;;9.07;4.63;;;;;;;;;;8286343;28;20050;-78
2022/03/01 10:13:59;;;;;;;7.68;4.80;;;;;;;;;;8287981;28;20099;-78
2022/03/01 10:18:12;;;;;;;10.20;4.78;;;;;;;;;;8314946;28;20103;-78
2022/03/01 10:22:15;;;;;;;13.43;6.43;;;;;;;;;;8359819;28;20049;-78
2022/03/01 10:26:24;;;;;;;9.65;5.18;;;;;;;;;;8364376;28;20546;-78
2022/03/01 10:30:40;;;;;;;8.20;4.80;;;;;;;;;;8363890;28;20076;-79
2022/03/01 10:34:57;;;;;;;9.32;5.32;;;;;;;;;;8362583;28;20472;-80
2022/03/01 10:39:04;;;;;;;9.10;4.60;;;;;;;;;;8361992;28;20130;-78
2022/03/01 10:43:11;;;;;;;13.20;5.32;;;;;;;;;;8363131;28;20041;-79
2022/03/01 10:47:21;;;;;;;15.43;8.10;;;;;;;;;;8369598;28;20056;-78
2022/03/01 10:51:24;;;;;;;12.95;5.78;;;;;;;;;;8358816;28;20053;-78
2022/03/01 10:55:28;;;;;;;14.02;6.95;;;;;;;;;;8359441;28;20049;-79
2022/03/01 10:59:32;;;;;;;16.02;7.72;;;;;;;;;;8361720;28;20049;-79
2022/03/01 11:03:37;;;;;;;16.10;7.38;;;;;;;;;;8362702;28;20053;-79
2022/03/01 11:07:43;;;;;;;13.73;6.35;;;;;;;;;;8362512;28;20578;-79
2022/03/01 11:11:48;;;;;;;16.50;6.78;;;;;;;;;;8361990;28;20416;-80
2022/03/01 11:16:24;;;;;;;20.75;10.55;;;;;;;;;;8359429;28;20059;-79
2022/03/01 11:20:35;;;;;;;16.33;7.97;;;;;;;;;;8348503;28;20056;-79
2022/03/01 11:24:37;;;;;;;13.15;6.85;;;;;;;;;;8362039;28;20088;-80
2022/03/01 11:28:41;;;;;;;17.48;7.38;;;;;;;;;;8362955;28;20057;-80
2022/03/01 11:32:46;;;;;;;13.00;6.75;;;;;;;;;;8360035;28;20473;-79
2022/03/01 11:36:52;;;;;;;11.27;5.97;;;;;;;;;;8360150;28;20122;-79
2022/03/01 11:41:00;;;;;;;12.18;5.80;;;;;;;;;;8360673;28;20042;-79
2022/03/01 11:45:11;;;;;;;14.65;5.47;;;;;;;;;;8358106;28;20404;-80
2022/03/01 11:49:20;;;;;;;12.80;6.70;;;;;;;;;;8361944;28;20134;-83
2022/03/01 11:53:36;;;;;;;12.05;5.97;;;;;;;;;;8360246;28;20135;-80
2022/03/01 11:57:46;;;;;;;6.63;4.13;;;;;;;;;;8361369;28;20496;-80
2022/03/01 12:01:51;;;;;;;;;;;;;;;;;;8335858;28;20053;-79
2022/03/01 12:06:02;;;;;;;;;;;;;;;;;;8363029;28;19927;-81
2022/03/01 12:10:32;;;;;;;7.85;4.57;;;;;;;;;;8359830;28;19932;-79
2022/03/01 12:14:40;;;;;;;10.95;5.32;;;;;;;;;;8360587;28;20045;-80
2022/03/01 12:18:54;;;;;;;11.27;5.20;;;;;;;;;;8356324;28;20487;-80
2022/03/01 12:23:12;;;;;;;10.10;4.90;;;;;;;;;;8366962;28;20045;-80
2022/03/01 12:27:33;;;;;;;10.05;4.60;;;;;;;;;;8371816;28;20049;-80
2022/03/01 12:31:49;;;;;;;9.15;4.53;;;;;;;;;;8367866;28;20098;-79
2022/03/01 12:36:08;;;;;;;13.95;6.88;;;;;;;;;;8367928;28;20090;-79
2022/03/01 12:40:28;;;;;;;10.60;5.15;;;;;;;;;;8369409;28;20040;-79
2022/03/01 12:44:53;;;;;;;29.67;10.05;;;;;;;;;;8370858;28;20049;-79
2022/03/01 12:49:09;;;;;;;9.13;5.13;;;;;;;;;;8370621;28;20140;-79
2022/03/01 12:53:32;;;;;;;11.52;5.65;;;;;;;;;;8372786;28;20045;-79
2022/03/01 12:57:47;;;;;;;11.07;5.57;;;;;;;;;;8372717;28;20076;-79
2022/03/01 13:02:06;;;;;;;17.45;6.93;;;;;;;;;;8373106;28;20091;-79
2022/03/01 13:06:19;;;;;;;12.65;5.72;;;;;;;;;;8346520;28;20527;-79
2022/03/01 13:10:31;;;;;;;10.77;4.60;;;;;;;;;;8367257;28;20538;-81
2022/03/01 13:14:38;;;;;;;9.70;5.25;;;;;;;;;;8372185;28;20086;-82
2022/03/01 13:19:10;;;;;;;15.82;7.05;;;;;;;;;;8371733;28;20057;-81
2022/03/01 13:23:19;;;;;;;12.38;7.00;;;;;;;;;;8372461;28;20445;-81
2022/03/01 13:27:27;;;;;;;9.30;5.15;;;;;;;;;;8372854;28;20044;-80
2022/03/01 13:31:30;;;;;;;11.93;5.03;;;;;;;;;;8371331;28;20053;-81
2022/03/01 13:35:35;;;;;;;12.65;5.28;;;;;;;;;;8365840;28;20048;-80
2022/03/01 13:39:42;;;;;;;15.27;5.13;;;;;;;;;;8364030;28;20076;-80
2022/03/01 13:43:45;;;;;;;13.27;6.18;;;;;;;;;;8355580;28;20048;-80
2022/03/01 13:47:48;;;;;;;11.52;6.28;;;;;;;;;;8365056;28;20140;-80
2022/03/01 13:52:03;;;;;;;10.18;4.95;;;;;;;;;;8363054;28;20045;-80
2022/03/01 13:56:06;;;;;;;21.05;8.27;;;;;;;;;;8362109;28;20041;-81
2022/03/01 14:00:13;;;;;;;15.93;8.27;;;;;;;;;;8364517;28;20041;-80
2022/03/01 14:04:22;;;;;;;12.63;6.10;;;;;;;;;;8346699;28;20090;-80
2022/03/01 14:08:28;;;;;;;13.15;6.85;;;;;;;;;;8365289;28;20119;-80
2022/03/01 14:12:33;;;;;;;20.30;10.05;;;;;;;;;;8361997;28;20086;-81
2022/03/01 14:16:36;;;;;;;12.80;6.35;;;;;;;;;;8361385;28;20041;-81
2022/03/01 14:20:40;;;;;;;15.05;6.65;;;;;;;;;;8362631;28;20052;-80
2022/03/01 14:24:47;;;;;;;17.20;8.38;;;;;;;;;;8365416;28;20052;-81
2022/03/01 14:28:54;;;;;;;15.32;6.35;;;;;;;;;;8357337;28;20124;-81
2022/03/01 14:33:00;;;;;;;11.73;5.85;;;;;;;;;;8356268;28;20069;-80
2022/03/01 14:37:03;;;;;;;11.20;6.57;;;;;;;;;;8360841;28;20057;-81
2022/03/01 14:41:09;;;;;;;63.25;19.98;;;;;;;;;;8360394;28;20048;-80
2022/03/01 14:45:12;;;;;;;11.23;5.95;;;;;;;;;;8352533;28;20477;-80
2022/03/01 14:49:15;;;;;;;23.75;8.95;;;;;;;;;;8357919;28;20057;-81
2022/03/01 14:53:18;;;;;;;22.20;10.07;;;;;;;;;;8353353;28;20058;-80
2022/03/01 14:57:23;;;;;;;9.95;6.35;;;;;;;;;;8333636;28;20077;-80
2022/03/01 15:01:25;;;;;;;9.93;5.32;;;;;;;;;;8336359;28;20053;-81
2022/03/01 15:05:28;;;;;;;18.10;6.53;;;;;;;;;;8321092;28;20830;-80
2022/03/01 15:09:33;;;;;;;18.55;8.70;;;;;;;;;;8359601;28;20041;-80
2022/03/01 15:13:47;;;;;;;20.48;7.88;;;;;;;;;;8354591;28;20048;-80
2022/03/01 15:17:54;;;;;;;21.73;8.88;;;;;;;;;;8358951;28;20503;-80
2022/03/01 15:21:57;;;;;;;15.65;5.45;;;;;;;;;;8360262;28;20049;-80
2022/03/01 15:26:04;;;;;;;30.13;14.60;;;;;;;;;;8358565;28;20480;-81
2022/03/01 15:30:15;;;;;;;16.48;6.10;;;;;;;;;;8354958;28;20049;-80
2022/03/01 15:34:19;;;;;;;11.48;5.07;;;;;;;;;;8335687;28;20137;-80
2022/03/01 15:38:22;;;;;;;25.15;13.15;;;;;;;;;;8371238;28;20523;-81
2022/03/01 15:42:25;;;;;;;19.58;10.27;;;;;;;;;;8365762;28;20120;-81
2022/03/01 15:46:30;;;;;;;30.90;14.55;;;;;;;;;;8363413;28;20037;-81
2022/03/01 15:50:34;;;;;;;17.58;8.35;;;;;;;;;;8361860;28;20084;-80
2022/03/01 15:54:38;;;;;;;16.73;7.05;;;;;;;;;;8361063;28;20040;-80
2022/03/01 15:58:40;;;;;;;11.30;5.82;;;;;;;;;;8355359;28;20045;-81
2022/03/01 16:02:45;;;;;;;13.93;5.03;;;;;;;;;;8356103;28;20055;-81
2022/03/01 16:06:48;;;;;;;32.90;12.52;;;;;;;;;;8358575;28;20045;-81
2022/03/01 16:10:51;;;;;;;144.93;46.35;;;;;;;;;;8358037;28;20040;-81
2022/03/01 16:14:54;;;;;;;179.48;51.63;;;;;;;;;;8358162;28;20051;-81
2022/03/01 16:18:59;;;;;;;44.92;19.20;;;;;;;;;;8351435;28;20059;-81
2022/03/01 16:23:03;;;;;;;41.42;13.70;;;;;;;;;;8356060;28;20065;-81
2022/03/01 16:27:09;;;;;;;22.98;9.23;;;;;;;;;;8361294;28;20704;-81
2022/03/01 16:31:15;;;;;;;27.70;10.85;;;;;;;;;;8362918;28;20492;-81
2022/03/01 16:35:42;;;;;;;22.58;12.15;;;;;;;;;;8363224;28;20058;-82
2022/03/01 16:40:19;;;;;;;20.70;8.88;;;;;;;;;;8357770;28;20099;-82
2022/03/01 16:44:43;;;;;;;16.63;7.60;;;;;;;;;;8359919;28;20500;-81
2022/03/01 16:49:10;;;;;;;28.10;11.30;;;;;;;;;;8366952;28;20523;-80
2022/03/01 16:53:35;;;;;;;22.33;10.60;;;;;;;;;;8375314;28;20048;-80
2022/03/01 16:57:41;;;;;;;27.60;9.73;;;;;;;;;;8364973;28;20389;-81
2022/03/01 17:01:44;;;;;;;25.75;12.68;;;;;;;;;;8355166;28;20403;-81
2022/03/01 17:05:47;;;;;;;40.15;19.38;;;;;;;;;;8361814;28;20041;-80
2022/03/01 17:09:52;;;;;;;65.43;21.25;;;;;;;;;;8363981;28;20068;-81
2022/03/01 17:13:54;;;;;;;52.13;16.15;;;;;;;;;;8368571;28;20041;-80
2022/03/01 17:18:00;;;;;;;44.13;18.83;;;;;;;;;;8364267;28;20060;-81
2022/03/01 17:22:03;;;;;;;39.65;14.57;;;;;;;;;;8363547;28;20430;-81
2022/03/01 17:26:08;;;;;;;34.20;14.65;;;;;;;;;;8347419;28;20065;-81
2022/03/01 17:30:12;;;;;;;24.67;11.77;;;;;;;;;;8363161;28;20094;-81
2022/03/01 17:34:15;;;;;;;36.47;13.70;;;;;;;;;;8364338;28;20052;-81
2022/03/01 17:38:18;;;;;;;30.13;11.63;;;;;;;;;;8363274;28;20127;-81
2022/03/01 17:42:24;;;;;;;28.10;11.57;;;;;;;;;;8359794;28;20045;-81
2022/03/01 17:46:26;;;;;;;20.52;10.10;;;;;;;;;;8354591;28;20051;-80
2022/03/01 17:50:29;;;;;;;18.95;7.43;;;;;;;;;;8370339;28;20071;-80
2022/03/01 17:54:32;;;;;;;20.92;8.18;;;;;;;;;;8363018;28;20047;-81
2022/03/01 17:58:37;;;;;;;14.93;7.30;;;;;;;;;;8360544;28;20400;-81
2022/03/01 18:02:41;;;;;;;18.30;8.30;;;;;;;;;;8362577;28;20116;-82
2022/03/01 18:06:44;;;;;;;22.10;9.00;;;;;;;;;;8362926;28;20052;-81
2022/03/01 18:10:48;;;;;;;40.70;14.73;;;;;;;;;;8362534;28;20123;-82
2022/03/01 18:14:52;;;;;;;30.73;13.30;;;;;;;;;;8361571;28;20048;-83
2022/03/01 18:18:55;;;;;;;22.00;9.43;;;;;;;;;;8361176;28;20118;-83
2022/03/01 18:22:58;;;;;;;36.67;14.75;;;;;;;;;;8362678;28;20582;-83
2022/03/01 18:27:01;;;;;;;36.63;12.50;;;;;;;;;;8359371;28;20045;-83
2022/03/01 18:31:06;;;;;;;30.33;11.60;;;;;;;;;;8354724;28;20464;-83
2022/03/01 18:35:11;;;;;;;27.60;11.10;;;;;;;;;;8358622;28;20404;-83
2022/03/01 18:39:14;;;;;;;37.45;13.48;;;;;;;;;;8361494;28;20048;-84
2022/03/01 18:43:20;;;;;;;78.00;21.25;;;;;;;;;;8358227;28;20091;-83
2022/03/01 18:47:28;;;;;;;20.42;8.27;;;;;;;;;;8340618;28;20684;-83
2022/03/01 18:51:31;;;;;;;37.13;14.52;;;;;;;;;;8350258;28;20044;-83
2022/03/01 18:55:34;;;;;;;43.08;15.48;;;;;;;;;;8355046;28;20049;-83
2022/03/01 18:59:37;;;;;;;29.52;10.93;;;;;;;;;;8370608;28;20445;-83
2022/03/01 19:03:46;;;;;;;29.10;13.18;;;;;;;;;;8398179;28;20071;-83
2022/03/01 19:07:51;;;;;;;26.02;12.20;;;;;;;;;;8398515;28;20479;-83
2022/03/01 19:11:54;;;;;;;23.73;10.00;;;;;;;;;;8376938;28;20056;-83
2022/03/01 19:15:57;;;;;;;25.55;10.32;;;;;;;;;;8365127;28;20480;-83
2022/03/01 19:20:02;;;;;;;27.40;10.40;;;;;;;;;;8364654;28;20060;-83
2022/03/01 19:24:13;;;;;;;74.72;20.77;;;;;;;;;;8364635;28;20091;-83
2022/03/01 19:28:18;;;;;;;26.83;13.82;;;;;;;;;;8373788;28;20424;-83
2022/03/01 19:32:23;;;;;;;61.70;21.00;;;;;;;;;;8370558;28;20037;-83
2022/03/01 19:36:38;;;;;;;34.08;14.73;;;;;;;;;;8364341;28;20535;-82
2022/03/01 19:40:47;;;;;;;36.53;14.15;;;;;;;;;;8362244;28;20045;-84
2022/03/01 19:44:51;;;;;;;35.60;18.10;;;;;;;;;;8361027;28;20553;-83
2022/03/01 19:48:54;;;;;;;35.47;16.27;;;;;;;;;;8363185;28;20489;-84
2022/03/01 19:53:00;;;;;;;34.47;16.42;;;;;;;;;;8366318;28;20044;-83
2022/03/01 19:57:03;;;;;;;51.42;22.88;;;;;;;;;;8363919;28;20072;-84
2022/03/01 20:01:07;;;;;;;30.75;13.75;;;;;;;;;;8363829;28;20041;-83
2022/03/01 20:05:10;;;;;;;30.27;16.02;;;;;;;;;;8363617;28;20045;-83
2022/03/01 20:09:15;;;;;;;28.65;13.65;;;;;;;;;;8363650;28;20053;-83
2022/03/01 20:13:22;;;;;;;22.00;12.25;;;;;;;;;;8363962;28;20522;-83
2022/03/01 20:17:25;;;;;;;48.95;19.77;;;;;;;;;;8363273;28;20075;-83
2022/03/01 20:21:28;;;;;;;25.90;11.23;;;;;;;;;;8363328;28;20044;-83
2022/03/01 20:25:32;;;;;;;30.67;12.38;;;;;;;;;;8363375;28;20045;-83
2022/03/01 20:29:36;;;;;;;27.05;13.10;;;;;;;;;;8363812;28;20442;-83
2022/03/01 20:33:40;;;;;;;26.38;14.32;;;;;;;;;;8363010;28;20497;-83
2022/03/01 20:37:44;;;;;;;120.20;31.00;;;;;;;;;;8363198;28;20120;-83
2022/03/01 20:41:50;;;;;;;19.77;10.80;;;;;;;;;;8363115;28;20407;-82
2022/03/01 20:45:53;;;;;;;83.97;31.02;;;;;;;;;;8369064;28;20040;-83
2022/03/01 20:49:56;;;;;;;217.05;61.75;;;;;;;;;;8369642;28;20072;-83
2022/03/01 20:53:58;;;;;;;195.23;53.92;;;;;;;;;;8369363;28;20419;-82
2022/03/01 20:58:04;;;;;;;176.75;48.72;;;;;;;;;;8369517;28;20396;-83
2022/03/01 21:02:07;;;;;;;370.73;88.07;;;;;;;;;;8369346;28;20114;-83
2022/03/01 21:06:10;;;;;;;288.80;63.13;;;;;;;;;;8369227;28;20045;-82
2022/03/01 21:10:14;;;;;;;117.20;30.42;;;;;;;;;;8369033;28;20079;-83
2022/03/01 21:14:18;;;;;;;51.28;16.77;;;;;;;;;;8368938;28;20048;-82
2022/03/01 21:18:22;;;;;;;28.42;12.55;;;;;;;;;;8368624;28;20388;-82
2022/03/01 21:22:25;;;;;;;21.52;7.70;;;;;;;;;;8368769;28;20057;-82
2022/03/01 21:26:28;;;;;;;19.02;7.60;;;;;;;;;;8369039;28;20545;-82
2022/03/01 21:30:33;;;;;;;78.57;18.92;;;;;;;;;;8368471;28;20465;-82
2022/03/01 21:34:35;;;;;;;119.15;29.33;;;;;;;;;;8368238;28;20045;-82
2022/03/01 21:38:39;;;;;;;144.82;37.00;;;;;;;;;;8368600;28;20041;-83
2022/03/01 21:42:42;;;;;;;122.90;31.23;;;;;;;;;;8368065;28;20041;-82
2022/03/01 21:46:46;;;;;;;107.20;27.73;;;;;;;;;;8368388;28;20431;-83
2022/03/01 21:50:50;;;;;;;114.43;26.10;;;;;;;;;;8367777;28;20492;-82
2022/03/01 21:54:53;;;;;;;19.05;9.30;;;;;;;;;;8366908;28;20049;-83
2022/03/01 21:58:56;;;;;;;18.20;7.15;;;;;;;;;;8367631;28;20043;-83
2022/03/01 22:03:00;;;;;;;33.00;9.70;;;;;;;;;;8367470;28;20046;-83
2022/03/01 22:07:03;;;;;;;18.38;9.23;;;;;;;;;;8367356;28;20045;-82
2022/03/01 22:11:05;;;;;;;26.95;9.55;;;;;;;;;;8367106;28;20049;-82
2022/03/01 22:15:10;;;;;;;29.90;11.88;;;;;;;;;;8367074;28;20053;-83
2022/03/01 22:19:15;;;;;;;33.50;12.70;;;;;;;;;;8366748;28;20061;-83
2022/03/01 22:23:17;;;;;;;30.17;11.23;;;;;;;;;;8366823;28;20045;-83
2022/03/01 22:27:20;;;;;;;39.08;16.52;;;;;;;;;;8366685;28;20044;-83
2022/03/01 22:31:22;;;;;;;37.72;13.93;;;;;;;;;;8367254;28;20397;-83
2022/03/01 22:35:27;;;;;;;54.72;20.98;;;;;;;;;;8367235;28;20049;-83
2022/03/01 22:39:29;;;;;;;44.97;19.33;;;;;;;;;;8366892;28;20115;-83
2022/03/01 22:43:32;;;;;;;36.80;14.68;;;;;;;;;;8366450;28;20049;-83
2022/03/01 22:47:36;;;;;;;58.72;18.70;;;;;;;;;;8366343;28;20460;-83
2022/03/01 22:51:40;;;;;;;43.17;18.65;;;;;;;;;;8365836;28;20405;-83
2022/03/01 22:55:43;;;;;;;58.90;22.00;;;;;;;;;;8366257;28;20472;-83
2022/03/01 22:59:46;;;;;;;72.78;23.98;;;;;;;;;;8365342;28;20415;-82
2022/03/01 23:03:51;;;;;;;65.05;23.08;;;;;;;;;;8365507;28;20051;-83
2022/03/01 23:07:56;;;;;;;74.38;24.65;;;;;;;;;;8364486;28;20094;-82
2022/03/01 23:11:58;;;;;;;55.20;23.75;;;;;;;;;;8365200;28;20045;-83
2022/03/01 23:16:01;;;;;;;64.85;21.67;;;;;;;;;;8365121;28;20044;-83
2022/03/01 23:20:04;;;;;;;66.90;22.85;;;;;;;;;;8364775;28;20054;-83
2022/03/01 23:24:26;;;;;;;49.58;20.20;;;;;;;;;;8363895;28;20059;-83
2022/03/01 23:28:29;;;;;;;44.27;16.93;;;;;;;;;;8387439;28;20487;-83
2022/03/01 23:32:31;;;;;;;41.45;16.83;;;;;;;;;;8386407;28;20438;-83
2022/03/01 23:36:34;;;;;;;44.13;17.20;;;;;;;;;;8382772;28;20045;-83
2022/03/01 23:40:38;;;;;;;32.70;15.20;;;;;;;;;;8390022;28;20040;-83
2022/03/01 23:44:41;;;;;;;36.88;14.68;;;;;;;;;;8371363;28;20076;-83
2022/03/01 23:48:44;;;;;;;38.75;16.52;;;;;;;;;;8374635;28;20044;-83
2022/03/01 23:52:46;;;;;;;46.17;15.40;;;;;;;;;;8383644;28;20399;-83
2022/03/01 23:56:51;;;;;;;31.85;13.38;;;;;;;;;;8392322;28;20047;-83
